createdAt,value
2022-12-16T00:01:15.720Z,42.60
2022-12-16T00:03:44.352Z,42.30
2022-12-16T00:06:13.917Z,41.50
2022-12-16T00:08:42.016Z,40.00
2022-12-16T00:11:10.269Z,38.27
2022-12-16T00:13:40.347Z,38.83
2022-12-16T00:16:09.984Z,40.53
2022-12-16T00:18:38.117Z,39.57
2022-12-16T00:21:06.372Z,37.77
2022-12-16T00:23:36.627Z,38.43
2022-12-16T00:26:04.903Z,38.63
2022-12-16T00:28:32.982Z,38.90
2022-12-16T00:31:01.182Z,38.50
2022-12-16T00:33:29.398Z,38.73
2022-12-16T00:35:58.279Z,36.83
2022-12-16T00:38:27.368Z,33.37
2022-12-16T00:40:56.883Z,33.50
2022-12-16T00:43:24.966Z,35.50
2022-12-16T00:45:53.224Z,33.23
2022-12-16T00:48:23.144Z,34.10
2022-12-16T00:50:51.913Z,31.37
2022-12-16T00:53:20.181Z,35.40
2022-12-16T00:55:48.300Z,33.13
2022-12-16T00:58:18.238Z,35.87
2022-12-16T01:00:46.696Z,32.80
2022-12-16T01:03:21.121Z,32.63
2022-12-16T01:05:49.784Z,33.80
2022-12-16T01:08:17.893Z,33.40
2022-12-16T01:10:51.609Z,35.73
2022-12-16T01:13:21.988Z,35.00
2022-12-16T01:15:50.173Z,38.23
2022-12-16T01:18:18.771Z,36.90
2022-12-16T01:20:46.962Z,37.63
2022-12-16T01:23:15.064Z,36.27
2022-12-16T01:25:43.269Z,37.43
2022-12-16T01:28:11.416Z,37.50
2022-12-16T01:30:40.902Z,38.30
2022-12-16T01:33:08.941Z,39.47
2022-12-16T01:35:55.431Z,38.93
2022-12-16T01:38:24.183Z,37.03
2022-12-16T01:40:52.806Z,39.67
2022-12-16T01:43:26.715Z,36.43
2022-12-16T01:45:57.842Z,39.63
2022-12-16T01:48:37.445Z,37.63
2022-12-16T01:51:08.038Z,39.13
2022-12-16T01:53:37.034Z,40.93
2022-12-16T01:56:05.209Z,41.13
2022-12-16T01:58:34.600Z,38.57
2022-12-16T02:01:04.635Z,40.03
2022-12-16T02:03:35.250Z,41.37
2022-12-16T02:06:04.234Z,41.93
2022-12-16T02:08:32.609Z,41.93
2022-12-16T02:11:16.665Z,42.87
2022-12-16T02:13:57.727Z,42.60
2022-12-16T02:16:29.195Z,43.97
2022-12-16T02:18:59.280Z,43.50
2022-12-16T02:21:45.784Z,42.77
2022-12-16T02:24:33.811Z,42.10
2022-12-16T02:27:44.063Z,42.50
2022-12-16T02:30:38.389Z,44.17
2022-12-16T02:33:13.322Z,41.53
2022-12-16T02:35:43.055Z,41.43
2022-12-16T02:38:15.999Z,42.70
2022-12-16T02:40:45.341Z,42.13
2022-12-16T02:43:16.630Z,44.87
2022-12-16T02:45:46.190Z,40.90
2022-12-16T02:48:14.236Z,41.57
2022-12-16T02:50:43.843Z,43.57
2022-12-16T02:53:11.873Z,44.93
2022-12-16T02:55:46.051Z,44.83
2022-12-16T02:58:17.555Z,42.53
2022-12-16T03:00:52.745Z,42.00
2022-12-16T03:03:22.050Z,44.80
2022-12-16T03:05:50.642Z,42.43
2022-12-16T03:08:21.495Z,42.43
2022-12-16T03:10:52.624Z,40.63
2022-12-16T03:13:21.017Z,42.13
2022-12-16T03:15:50.930Z,41.17
2022-12-16T03:18:18.967Z,42.23
2022-12-16T03:20:48.577Z,41.13
2022-12-16T03:23:19.137Z,41.40
2022-12-16T03:25:48.569Z,42.40
2022-12-16T03:28:23.042Z,41.87
2022-12-16T03:31:03.083Z,41.57
2022-12-16T03:33:32.320Z,42.50
2022-12-16T03:36:01.834Z,42.27
2022-12-16T03:38:29.920Z,41.90
2022-12-16T03:40:58.097Z,40.43
2022-12-16T03:43:26.220Z,40.77
2022-12-16T03:45:56.707Z,40.67
2022-12-16T03:48:25.113Z,40.17
2022-12-16T03:50:53.285Z,40.87
2022-12-16T03:53:24.632Z,38.83
2022-12-16T03:55:52.770Z,40.57
2022-12-16T03:58:20.825Z,40.27
2022-12-16T04:00:49.017Z,40.10
2022-12-16T04:03:18.631Z,38.97
2022-12-16T04:05:46.997Z,39.90
2022-12-16T04:08:15.123Z,39.47
2022-12-16T04:11:00.434Z,40.53
2022-12-16T04:13:51.372Z,38.60
2022-12-16T04:16:36.940Z,38.70
2022-12-16T04:19:26.112Z,37.70
2022-12-16T04:22:11.884Z,37.70
2022-12-16T04:24:40.106Z,36.90
2022-12-16T04:27:27.862Z,37.87
2022-12-16T04:30:25.260Z,38.43
2022-12-16T04:33:12.886Z,38.20
2022-12-16T04:35:59.768Z,36.53
2022-12-16T04:38:45.428Z,36.77
2022-12-16T04:41:31.270Z,36.53
2022-12-16T04:44:17.013Z,35.90
2022-12-16T04:47:02.411Z,35.73
2022-12-16T04:49:47.725Z,35.70
2022-12-16T04:52:34.622Z,34.20
2022-12-16T04:55:20.386Z,32.87
2022-12-16T04:58:07.139Z,34.33
2022-12-16T05:00:52.665Z,34.97
2022-12-16T05:03:38.460Z,33.10
2022-12-16T05:06:24.362Z,36.93
2022-12-16T05:09:11.261Z,35.40
2022-12-16T05:11:56.751Z,36.53
2022-12-16T05:14:42.400Z,35.47
2022-12-16T05:17:28.087Z,38.07
2022-12-16T05:20:13.788Z,36.63
2022-12-16T05:22:59.598Z,37.00
2022-12-16T05:25:46.298Z,37.93
2022-12-16T05:28:32.082Z,36.13
2022-12-16T05:31:18.045Z,34.50
2022-12-16T05:34:03.574Z,33.87
2022-12-16T05:36:48.885Z,34.93
2022-12-16T05:39:34.196Z,34.07
2022-12-16T05:42:20.899Z,32.90
2022-12-16T05:45:06.261Z,32.67
2022-12-16T05:47:51.707Z,33.10
2022-12-16T05:50:37.601Z,32.77
2022-12-16T05:53:23.026Z,33.77
2022-12-16T05:56:20.456Z,35.43
2022-12-16T05:59:07.134Z,34.60
2022-12-16T06:01:52.852Z,34.07
2022-12-16T06:04:38.403Z,32.87
2022-12-16T06:07:24.089Z,35.43
2022-12-16T06:10:09.747Z,35.10
2022-12-16T06:12:55.456Z,34.30
2022-12-16T06:15:42.101Z,34.80
2022-12-16T06:18:27.841Z,35.67
2022-12-16T06:21:13.568Z,36.00
2022-12-16T06:24:01.539Z,34.63
2022-12-16T06:26:46.953Z,32.60
2022-12-16T06:29:32.222Z,34.23
2022-12-16T06:32:19.152Z,34.77
2022-12-16T06:35:19.303Z,32.63
2022-12-16T06:38:06.304Z,32.50
2022-12-16T06:40:52.302Z,33.80
2022-12-16T06:43:40.578Z,33.13
2022-12-16T06:46:26.417Z,36.23
2022-12-16T06:49:13.308Z,34.97
2022-12-16T06:51:58.873Z,34.90
2022-12-16T06:54:44.615Z,32.10
2022-12-16T06:57:30.351Z,33.23
2022-12-16T07:00:15.699Z,32.33
2022-12-16T07:03:01.554Z,33.43
2022-12-16T07:05:48.836Z,31.90
2022-12-16T07:08:34.285Z,33.23
2022-12-16T07:11:34.321Z,34.03
2022-12-16T07:14:19.771Z,32.67
2022-12-16T07:17:05.365Z,34.03
2022-12-16T07:19:51.218Z,31.40
2022-12-16T07:22:38.292Z,32.30
2022-12-16T07:25:25.056Z,32.90
2022-12-16T07:28:15.308Z,37.00
2022-12-16T07:31:01.528Z,35.73
2022-12-16T07:33:47.123Z,34.57
2022-12-16T07:36:41.253Z,33.00
2022-12-16T07:39:27.902Z,33.23
2022-12-16T07:42:13.715Z,34.70
2022-12-16T07:44:59.431Z,35.80
2022-12-16T07:47:45.084Z,33.63
2022-12-16T07:50:30.534Z,34.47
2022-12-16T07:53:16.018Z,34.13
2022-12-16T07:56:02.976Z,35.90
2022-12-16T07:58:48.737Z,35.73
2022-12-16T08:01:34.428Z,33.20
2022-12-16T08:04:20.169Z,35.10
2022-12-16T08:07:14.358Z,33.77
2022-12-16T08:09:59.982Z,32.93
2022-12-16T08:12:46.969Z,35.97
2022-12-16T08:15:32.786Z,36.03
2022-12-16T08:18:18.341Z,36.27
2022-12-16T08:21:03.846Z,38.03
2022-12-16T08:23:49.231Z,36.37
2022-12-16T08:26:34.714Z,36.03
2022-12-16T08:29:43.256Z,37.80
2022-12-16T08:32:27.374Z,42.80
2022-12-16T08:35:13.053Z,42.33
2022-12-16T08:37:58.423Z,38.40
2022-12-16T08:40:44.165Z,38.97
2022-12-16T08:43:29.900Z,39.27
2022-12-16T08:46:17.048Z,36.53
2022-12-16T08:49:02.774Z,36.10
2022-12-16T08:51:48.509Z,35.30
2022-12-16T08:54:34.239Z,35.17
2022-12-16T08:57:19.512Z,34.77
2022-12-16T09:00:19.595Z,33.10
2022-12-16T09:03:06.461Z,31.93
2022-12-16T09:05:52.370Z,33.27
2022-12-16T09:08:38.108Z,31.93
2022-12-16T09:11:23.697Z,32.93
2022-12-16T09:14:09.583Z,32.80
2022-12-16T09:16:55.481Z,32.10
2022-12-16T09:19:42.907Z,33.43
2022-12-16T09:22:31.056Z,32.97
2022-12-16T09:25:16.694Z,34.67
2022-12-16T09:28:02.465Z,33.43
2022-12-16T09:30:48.220Z,35.90
2022-12-16T09:33:33.803Z,37.60
2022-12-16T09:36:20.783Z,38.47
2022-12-16T09:39:06.699Z,39.47
2022-12-16T09:42:00.468Z,41.83
2022-12-16T09:44:53.214Z,42.17
2022-12-16T09:47:42.021Z,43.83
2022-12-16T09:50:35.764Z,43.23
2022-12-16T09:53:22.951Z,42.20
2022-12-16T09:56:08.703Z,38.47
2022-12-16T09:58:55.442Z,38.93
2022-12-16T10:01:40.870Z,39.10
2022-12-16T10:04:28.727Z,38.57
2022-12-16T10:07:18.936Z,36.90
2022-12-16T10:10:08.847Z,36.97
2022-12-16T10:12:57.568Z,39.23
2022-12-16T10:15:48.259Z,38.43
2022-12-16T10:18:41.654Z,37.23
2022-12-16T10:21:27.293Z,36.73
2022-12-16T10:24:15.936Z,36.87
2022-12-16T10:27:08.241Z,37.93
2022-12-16T10:29:54.576Z,38.07
2022-12-16T10:32:45.496Z,38.77
2022-12-16T10:35:37.907Z,36.47
2022-12-16T10:38:25.256Z,38.93
2022-12-16T10:41:10.790Z,39.37
2022-12-16T10:44:00.854Z,36.83
2022-12-16T10:46:48.300Z,36.70
2022-12-16T10:49:34.331Z,36.53
2022-12-16T10:52:20.074Z,34.87
2022-12-16T10:55:10.448Z,35.80
2022-12-16T10:57:57.889Z,39.03
2022-12-16T11:01:02.382Z,34.50
2022-12-16T11:03:48.497Z,36.70
2022-12-16T11:06:36.605Z,36.20
2022-12-16T11:09:43.520Z,38.10
2022-12-16T11:12:46.132Z,38.93
2022-12-16T11:15:42.472Z,35.90
2022-12-16T11:18:32.154Z,39.67
2022-12-16T11:21:31.505Z,34.73
2022-12-16T11:24:35.347Z,38.13
2022-12-16T11:27:21.445Z,32.90
2022-12-16T11:30:11.124Z,34.70
2022-12-16T11:32:57.385Z,33.00
2022-12-16T11:35:45.866Z,34.03
2022-12-16T11:38:37.125Z,32.73
2022-12-16T11:41:24.774Z,31.80
2022-12-16T11:44:10.799Z,31.70
2022-12-16T11:46:56.586Z,31.60
2022-12-16T11:49:45.639Z,34.17
2022-12-16T11:52:37.627Z,34.53
2022-12-16T11:56:03.215Z,38.57
2022-12-16T11:58:40.103Z,36.57
2022-12-16T12:01:30.422Z,34.87
2022-12-16T12:04:16.172Z,37.60
2022-12-16T12:07:32.449Z,37.00
2022-12-16T12:10:20.633Z,34.80
2022-12-16T12:13:07.875Z,34.27
2022-12-16T12:15:56.664Z,34.40
2022-12-16T12:18:46.964Z,33.97
2022-12-16T12:21:35.727Z,33.20
2022-12-16T12:24:24.638Z,33.63
2022-12-16T12:27:21.590Z,34.00
2022-12-16T12:30:16.506Z,34.80
2022-12-16T12:33:04.890Z,32.27
2022-12-16T12:36:00.151Z,32.17
2022-12-16T12:38:48.378Z,32.43
2022-12-16T12:41:37.526Z,31.17
2022-12-16T12:44:42.498Z,31.80
2022-12-16T12:47:34.204Z,31.37
2022-12-16T12:50:22.359Z,32.40
2022-12-16T12:53:24.377Z,32.70
2022-12-16T12:56:13.575Z,33.23
2022-12-16T12:59:00.362Z,34.93
2022-12-16T13:01:47.160Z,36.67
2022-12-16T13:04:34.298Z,34.67
2022-12-16T13:07:19.908Z,33.33
2022-12-16T13:10:05.254Z,34.37
2022-12-16T13:12:51.562Z,33.17
2022-12-16T13:15:51.951Z,37.17
2022-12-16T13:18:47.243Z,33.60
2022-12-16T13:22:06.176Z,34.37
2022-12-16T13:24:55.832Z,35.77
2022-12-16T13:27:41.784Z,36.43
2022-12-16T13:30:42.550Z,35.17
2022-12-16T13:33:43.645Z,36.03
2022-12-16T13:36:29.800Z,37.37
2022-12-16T13:39:16.758Z,37.03
2022-12-16T13:42:18.069Z,36.60
2022-12-16T13:45:26.899Z,40.50
2022-12-16T13:48:23.833Z,41.10
2022-12-16T13:51:18.059Z,41.00
2022-12-16T13:54:06.187Z,40.37
2022-12-16T13:56:53.193Z,40.37
2022-12-16T13:59:40.167Z,41.87
2022-12-16T14:02:37.196Z,45.60
2022-12-16T14:05:33.228Z,44.33
2022-12-16T14:08:18.601Z,45.63
2022-12-16T14:11:04.038Z,44.93
2022-12-16T14:13:51.958Z,45.77
2022-12-16T14:16:42.448Z,48.43
2022-12-16T14:19:36.058Z,49.37
2022-12-16T14:22:27.571Z,50.00
2022-12-16T14:25:26.203Z,52.03
2022-12-16T14:28:13.673Z,51.63
2022-12-16T14:30:59.627Z,52.13
2022-12-16T14:33:46.319Z,50.73
2022-12-16T14:36:41.876Z,51.33
2022-12-16T14:39:32.616Z,55.37
2022-12-16T14:42:18.033Z,56.23
2022-12-16T14:45:04.387Z,56.97
2022-12-16T14:47:49.662Z,62.00
2022-12-16T14:50:40.055Z,60.40
2022-12-16T14:53:34.625Z,61.33
2022-12-16T14:56:37.456Z,60.07
2022-12-16T14:59:33.145Z,63.37
2022-12-16T15:02:27.575Z,62.67
2022-12-16T15:05:13.324Z,59.63
2022-12-16T15:07:58.695Z,62.73
2022-12-16T15:10:45.059Z,59.17
2022-12-16T15:13:34.979Z,59.70
2022-12-16T15:16:21.068Z,57.33
2022-12-16T15:19:07.488Z,58.33
2022-12-16T15:21:53.007Z,58.17
2022-12-16T15:24:39.721Z,72.40
2022-12-16T15:27:44.202Z,62.03
2022-12-16T15:30:54.752Z,57.27
2022-12-16T15:33:41.429Z,60.87
2022-12-16T15:36:42.535Z,59.70
2022-12-16T15:39:29.890Z,58.93
2022-12-16T15:42:15.211Z,61.73
2022-12-16T15:45:10.680Z,63.87
2022-12-16T15:47:57.794Z,65.43
2022-12-16T15:50:44.293Z,60.50
2022-12-16T15:53:34.499Z,57.43
2022-12-16T15:56:20.380Z,54.33
2022-12-16T15:59:06.103Z,52.13
2022-12-16T16:02:05.143Z,51.47
2022-12-16T16:04:52.286Z,53.10
2022-12-16T16:07:39.132Z,52.53
2022-12-16T16:10:31.677Z,55.30
2022-12-16T16:13:17.161Z,57.03
2022-12-16T16:16:03.389Z,75.93
2022-12-16T16:18:49.292Z,64.93
2022-12-16T16:21:36.256Z,64.20
2022-12-16T16:24:21.970Z,68.17
2022-12-16T16:27:22.181Z,64.73
2022-12-16T16:30:07.897Z,62.50
2022-12-16T16:32:53.749Z,59.83
2022-12-16T16:35:39.438Z,61.10
2022-12-16T16:38:42.932Z,61.03
2022-12-16T16:41:30.633Z,58.23
2022-12-16T16:44:19.602Z,58.00
2022-12-16T16:47:05.532Z,57.60
2022-12-16T16:49:52.227Z,59.73
2022-12-16T16:52:38.446Z,61.87
2022-12-16T16:55:25.675Z,61.17
2022-12-16T16:58:11.219Z,57.40
2022-12-16T17:00:57.049Z,57.63
2022-12-16T17:03:43.164Z,58.23
2022-12-16T17:06:29.388Z,57.70
2022-12-16T17:09:14.870Z,59.83
2022-12-16T17:12:01.796Z,60.03
2022-12-16T17:14:47.245Z,59.97
2022-12-16T17:17:32.463Z,54.07
2022-12-16T17:20:18.143Z,56.37
2022-12-16T17:23:03.467Z,57.33
2022-12-16T17:25:48.845Z,59.07
2022-12-16T17:28:35.655Z,64.67
2022-12-16T17:31:21.469Z,61.93
2022-12-16T17:34:07.127Z,61.07
2022-12-16T17:36:52.940Z,61.93
2022-12-16T17:39:38.245Z,63.80
2022-12-16T17:42:24.396Z,69.80
2022-12-16T17:45:11.100Z,68.80
2022-12-16T17:47:56.641Z,72.20
2022-12-16T17:50:42.346Z,77.17
2022-12-16T17:53:27.619Z,73.93
2022-12-16T17:56:13.281Z,68.23
2022-12-16T17:58:55.211Z,67.30
2022-12-16T18:01:42.238Z,65.30
2022-12-16T18:04:28.034Z,68.37
2022-12-16T18:07:13.695Z,68.97
2022-12-16T18:09:59.538Z,68.30
2022-12-16T18:12:45.144Z,66.20
2022-12-16T18:15:30.879Z,63.80
2022-12-16T18:18:18.855Z,55.97
2022-12-16T18:21:04.282Z,57.77
2022-12-16T18:23:50.072Z,53.10
2022-12-16T18:26:35.734Z,57.57
2022-12-16T18:29:20.946Z,54.73
2022-12-16T18:32:06.808Z,53.83
2022-12-16T18:34:53.620Z,52.97
2022-12-16T18:37:39.405Z,53.50
2022-12-16T18:40:26.602Z,57.13
2022-12-16T18:43:12.136Z,53.07
2022-12-16T18:45:57.844Z,49.77
2022-12-16T18:48:43.558Z,51.00
2022-12-16T18:51:38.879Z,52.00
2022-12-16T18:54:24.111Z,51.30
2022-12-16T18:57:09.828Z,51.83
2022-12-16T18:59:56.287Z,53.03
2022-12-16T19:02:42.477Z,48.13
2022-12-16T19:05:28.160Z,50.17
2022-12-16T19:08:15.263Z,51.67
2022-12-16T19:11:00.774Z,48.93
2022-12-16T19:13:46.403Z,52.50
2022-12-16T19:16:32.294Z,52.77
2022-12-16T19:19:20.140Z,50.47
2022-12-16T19:22:06.212Z,46.80
2022-12-16T19:24:55.085Z,47.17
2022-12-16T19:27:58.473Z,49.17
2022-12-16T19:30:43.719Z,56.83
2022-12-16T19:33:29.288Z,59.43
2022-12-16T19:36:15.161Z,53.83
2022-12-16T19:39:00.656Z,53.17
2022-12-16T19:41:47.382Z,55.17
2022-12-16T19:44:32.917Z,56.43
2022-12-16T19:47:18.419Z,58.10
2022-12-16T19:50:04.324Z,57.03
2022-12-16T19:52:49.961Z,52.60
2022-12-16T19:55:35.818Z,52.70
2022-12-16T19:58:22.628Z,52.00
2022-12-16T20:01:07.945Z,50.87
2022-12-16T20:03:56.569Z,51.40
2022-12-16T20:06:42.584Z,53.90
2022-12-16T20:09:28.335Z,50.97
2022-12-16T20:12:14.123Z,54.30
2022-12-16T20:15:00.987Z,54.73
2022-12-16T20:17:46.596Z,51.03
2022-12-16T20:20:32.522Z,52.10
2022-12-16T20:23:18.245Z,51.43
2022-12-16T20:26:11.397Z,53.53
2022-12-16T20:28:57.076Z,53.10
2022-12-16T20:31:49.160Z,56.30
2022-12-16T20:34:35.165Z,58.83
2022-12-16T20:37:20.738Z,60.93
2022-12-16T20:40:06.321Z,65.33
2022-12-16T20:42:51.710Z,66.57
2022-12-16T20:45:39.009Z,66.83
2022-12-16T20:48:25.686Z,72.80
2022-12-16T20:51:14.516Z,67.13
2022-12-16T20:54:00.117Z,73.90
2022-12-16T20:56:46.104Z,66.00
2022-12-16T20:59:31.719Z,65.73
2022-12-16T21:02:29.072Z,66.70
2022-12-16T21:05:19.842Z,66.53
2022-12-16T21:08:05.271Z,69.87
2022-12-16T21:10:51.637Z,65.57
2022-12-16T21:13:37.525Z,66.57
2022-12-16T21:16:24.584Z,72.47
2022-12-16T21:19:10.155Z,62.70
2022-12-16T21:21:57.079Z,72.10
2022-12-16T21:24:42.528Z,67.87
2022-12-16T21:27:28.160Z,60.93
2022-12-16T21:30:13.670Z,58.47
2022-12-16T21:32:59.199Z,59.93
2022-12-16T21:35:44.789Z,56.60
2022-12-16T21:38:31.879Z,51.10
2022-12-16T21:41:17.826Z,51.50
2022-12-16T21:44:03.464Z,51.27
2022-12-16T21:46:49.127Z,50.93
2022-12-16T21:49:49.181Z,53.23
2022-12-16T21:52:34.938Z,55.07
2022-12-16T21:55:21.901Z,58.47
2022-12-16T21:58:07.690Z,58.70
2022-12-16T22:00:53.618Z,51.97
2022-12-16T22:03:46.104Z,54.90
2022-12-16T22:06:31.721Z,54.63
2022-12-16T22:09:17.490Z,55.40
2022-12-16T22:12:04.866Z,54.13
2022-12-16T22:14:50.762Z,52.37
2022-12-16T22:17:36.707Z,51.67
2022-12-16T22:20:22.835Z,51.20
2022-12-16T22:23:08.203Z,52.97
2022-12-16T22:25:54.056Z,51.70
2022-12-16T22:28:43.194Z,52.43
2022-12-16T22:31:28.993Z,52.27
2022-12-16T22:34:14.655Z,54.10
2022-12-16T22:37:00.528Z,53.47
2022-12-16T22:39:45.956Z,51.30
2022-12-16T22:42:31.563Z,54.07
2022-12-16T22:45:18.300Z,49.47
2022-12-16T22:48:03.923Z,48.10
2022-12-16T22:50:50.491Z,49.63
2022-12-16T22:53:36.173Z,51.10
2022-12-16T22:56:21.774Z,50.23
2022-12-16T22:59:07.834Z,50.87
2022-12-16T23:01:54.526Z,49.00
2022-12-16T23:04:42.579Z,49.07
2022-12-16T23:07:28.065Z,52.17
2022-12-16T23:10:13.710Z,52.33
2022-12-16T23:13:10.755Z,53.77
2022-12-16T23:16:01.779Z,52.83
2022-12-16T23:18:48.641Z,55.23
2022-12-16T23:21:34.390Z,54.63
2022-12-16T23:24:20.275Z,55.20
2022-12-16T23:27:05.815Z,54.40
2022-12-16T23:29:51.522Z,55.50
2022-12-16T23:32:38.010Z,52.73
2022-12-16T23:35:30.656Z,53.20
2022-12-16T23:38:20.308Z,51.83
2022-12-16T23:41:05.822Z,53.03
2022-12-16T23:43:51.654Z,48.07
2022-12-16T23:46:37.450Z,49.10
2022-12-16T23:49:23.281Z,50.87
2022-12-16T23:52:10.258Z,50.87
2022-12-16T23:54:56.121Z,50.57
2022-12-16T23:57:41.725Z,51.13
